createdAt,value
2018-07-22T00:01:20.575Z,28.00
2018-07-22T00:03:49.918Z,28.03
2018-07-22T00:06:18.915Z,27.57
2018-07-22T00:08:47.887Z,26.90
2018-07-22T00:11:16.906Z,26.70
2018-07-22T00:13:46.098Z,27.63
2018-07-22T00:16:15.074Z,31.33
2018-07-22T00:18:44.088Z,29.87
2018-07-22T00:21:13.114Z,28.50
2018-07-22T00:23:42.174Z,27.27
2018-07-22T00:26:11.195Z,25.80
2018-07-22T00:28:40.247Z,30.50
2018-07-22T00:31:09.334Z,28.57
2018-07-22T00:33:38.330Z,26.93
2018-07-22T00:36:07.318Z,28.67
2018-07-22T00:38:36.318Z,28.33
2018-07-22T00:41:05.381Z,33.40
2018-07-22T00:43:34.413Z,29.77
2018-07-22T00:46:03.451Z,30.93
2018-07-22T00:48:32.470Z,31.40
2018-07-22T00:51:01.584Z,32.70
2018-07-22T00:53:30.634Z,33.63
2018-07-22T00:55:59.644Z,38.10
2018-07-22T00:58:28.690Z,32.50
2018-07-22T01:00:57.762Z,32.00
2018-07-22T01:03:26.786Z,32.20
2018-07-22T01:05:55.787Z,32.43
2018-07-22T01:08:24.786Z,34.53
2018-07-22T01:10:53.825Z,34.47
2018-07-22T01:13:22.926Z,35.27
2018-07-22T01:15:52.014Z,35.63
2018-07-22T01:18:21.054Z,35.07
2018-07-22T01:20:50.206Z,33.90
2018-07-22T01:23:19.242Z,34.77
2018-07-22T01:25:48.509Z,35.00
2018-07-22T01:28:17.579Z,34.87
2018-07-22T01:30:46.650Z,33.80
2018-07-22T01:33:15.613Z,36.27
2018-07-22T01:35:44.630Z,36.27
2018-07-22T01:38:13.594Z,35.63
2018-07-22T01:40:42.558Z,33.37
2018-07-22T01:43:12.708Z,35.87
2018-07-22T01:45:41.680Z,36.83
2018-07-22T01:48:10.653Z,32.40
2018-07-22T01:50:39.701Z,35.43
2018-07-22T01:53:08.750Z,35.37
2018-07-22T01:55:37.790Z,36.60
2018-07-22T01:58:06.746Z,36.20
2018-07-22T02:00:35.743Z,38.03
2018-07-22T02:03:04.711Z,38.90
2018-07-22T02:05:33.714Z,34.43
2018-07-22T02:08:02.711Z,39.13
2018-07-22T02:10:31.728Z,35.30
2018-07-22T02:13:00.712Z,37.17
2018-07-22T02:15:29.698Z,35.03
2018-07-22T02:17:58.679Z,38.40
2018-07-22T02:20:27.654Z,34.27
2018-07-22T02:22:56.630Z,34.43
2018-07-22T02:25:25.690Z,37.03
2018-07-22T02:27:54.791Z,32.83
2018-07-22T02:30:23.778Z,34.17
2018-07-22T02:32:52.774Z,33.13
2018-07-22T02:35:22.171Z,32.77
2018-07-22T02:37:51.115Z,35.93
2018-07-22T02:40:20.123Z,36.37
2018-07-22T02:42:49.195Z,37.10
2018-07-22T02:45:18.212Z,35.60
2018-07-22T02:47:47.345Z,37.67
2018-07-22T02:50:16.327Z,37.20
2018-07-22T02:52:45.327Z,34.80
2018-07-22T02:55:14.304Z,35.73
2018-07-22T02:57:43.277Z,32.17
2018-07-22T03:00:12.266Z,35.13
2018-07-22T03:02:41.252Z,34.87
2018-07-22T03:05:10.219Z,34.53
2018-07-22T03:07:39.219Z,35.80
2018-07-22T03:10:08.268Z,35.13
2018-07-22T03:12:37.233Z,32.57
2018-07-22T03:15:06.342Z,35.17
2018-07-22T03:17:35.382Z,34.73
2018-07-22T03:20:04.486Z,34.10
2018-07-22T03:22:33.515Z,32.30
2018-07-22T03:25:02.492Z,30.67
2018-07-22T03:27:31.475Z,29.03
2018-07-22T03:30:00.499Z,30.10
2018-07-22T03:32:29.511Z,29.23
2018-07-22T03:34:58.518Z,29.90
2018-07-22T03:37:27.505Z,28.53
2018-07-22T03:39:56.466Z,33.47
2018-07-22T03:42:25.454Z,26.40
2018-07-22T03:44:54.529Z,26.90
2018-07-22T03:47:23.574Z,25.50
2018-07-22T03:49:52.754Z,25.73
2018-07-22T03:52:21.751Z,25.97
2018-07-22T03:54:50.735Z,26.03
2018-07-22T03:57:19.726Z,25.93
2018-07-22T03:59:48.771Z,26.00
2018-07-22T04:02:17.742Z,23.63
2018-07-22T04:04:46.894Z,24.60
2018-07-22T04:07:15.902Z,27.00
2018-07-22T04:09:44.872Z,29.90
2018-07-22T04:12:13.889Z,30.53
2018-07-22T04:14:42.899Z,29.67
2018-07-22T04:17:11.911Z,30.13
2018-07-22T04:19:40.912Z,25.60
2018-07-22T04:22:09.962Z,27.30
2018-07-22T04:24:38.937Z,32.07
2018-07-22T04:27:08.053Z,27.30
2018-07-22T04:29:37.073Z,26.90
2018-07-22T04:32:06.070Z,25.77
2018-07-22T04:34:35.131Z,27.30
2018-07-22T04:37:04.155Z,24.60
2018-07-22T04:39:33.142Z,25.30
2018-07-22T04:42:02.171Z,25.77
2018-07-22T04:44:31.187Z,24.37
2018-07-22T04:47:00.206Z,27.37
2018-07-22T04:49:29.192Z,26.63
2018-07-22T04:51:58.202Z,29.47
2018-07-22T04:54:27.510Z,28.93
2018-07-22T04:56:56.765Z,26.63
2018-07-22T04:59:26.206Z,24.83
2018-07-22T05:01:55.264Z,26.43
2018-07-22T05:04:24.500Z,25.57
2018-07-22T05:06:53.643Z,25.67
2018-07-22T05:09:22.650Z,27.63
2018-07-22T05:11:51.806Z,24.37
2018-07-22T05:14:20.795Z,24.27
2018-07-22T05:16:50.058Z,23.60
2018-07-22T05:19:19.146Z,22.53
2018-07-22T05:21:48.259Z,22.03
2018-07-22T05:24:17.354Z,23.17
2018-07-22T05:26:46.366Z,21.27
2018-07-22T05:29:15.370Z,20.37
2018-07-22T05:31:44.355Z,19.97
2018-07-22T05:34:13.400Z,20.37
2018-07-22T05:36:42.419Z,21.23
2018-07-22T05:39:12.140Z,19.80
2018-07-22T05:41:41.799Z,19.43
2018-07-22T05:44:10.805Z,20.13
2018-07-22T05:46:39.782Z,20.37
2018-07-22T05:49:08.845Z,19.90
2018-07-22T05:51:37.901Z,19.93
2018-07-22T05:54:06.939Z,20.03
2018-07-22T05:56:35.972Z,19.17
2018-07-22T05:59:05.071Z,19.30
2018-07-22T06:01:34.059Z,21.17
2018-07-22T06:04:03.115Z,18.83
2018-07-22T06:06:32.105Z,19.30
2018-07-22T06:09:01.112Z,18.70
2018-07-22T06:11:30.158Z,19.77
2018-07-22T06:13:59.146Z,20.20
2018-07-22T06:16:28.194Z,18.80
2018-07-22T06:18:57.178Z,17.20
2018-07-22T06:21:26.170Z,18.27
2018-07-22T06:23:55.226Z,18.40
2018-07-22T06:26:24.200Z,19.47
2018-07-22T06:28:53.212Z,18.63
2018-07-22T06:31:22.324Z,18.33
2018-07-22T06:33:51.342Z,17.77
2018-07-22T06:36:20.431Z,16.93
2018-07-22T06:38:49.678Z,18.73
2018-07-22T06:41:18.699Z,17.73
2018-07-22T06:43:47.696Z,18.60
2018-07-22T06:46:16.843Z,17.20
2018-07-22T06:48:45.759Z,16.47
2018-07-22T06:51:14.778Z,17.33
2018-07-22T06:53:43.786Z,16.33
2018-07-22T06:56:12.787Z,17.00
2018-07-22T06:58:41.807Z,17.90
2018-07-22T07:01:10.815Z,18.67
2018-07-22T07:03:39.814Z,18.43
2018-07-22T07:06:08.868Z,18.90
2018-07-22T07:08:37.868Z,16.60
2018-07-22T07:11:06.897Z,17.37
2018-07-22T07:13:35.810Z,17.27
2018-07-22T07:16:04.876Z,16.93
2018-07-22T07:18:33.897Z,16.00
2018-07-22T07:21:02.882Z,18.23
2018-07-22T07:23:31.853Z,16.93
2018-07-22T07:26:00.844Z,17.30
2018-07-22T07:28:29.867Z,18.03
2018-07-22T07:30:58.882Z,17.00
2018-07-22T07:33:27.936Z,18.73
2018-07-22T07:35:56.923Z,15.97
2018-07-22T07:38:25.958Z,19.03
2018-07-22T07:40:55.039Z,19.00
2018-07-22T07:43:24.231Z,19.43
2018-07-22T07:45:53.477Z,17.90
2018-07-22T07:48:22.422Z,18.57
2018-07-22T07:50:51.466Z,19.57
2018-07-22T07:53:20.542Z,18.20
2018-07-22T07:55:49.558Z,17.93
2018-07-22T07:58:18.526Z,18.00
2018-07-22T08:00:47.510Z,17.60
2018-07-22T08:03:16.570Z,18.43
2018-07-22T08:05:45.571Z,17.80
2018-07-22T08:08:14.543Z,18.47
2018-07-22T08:10:43.537Z,16.63
2018-07-22T08:13:12.643Z,16.57
2018-07-22T08:15:41.658Z,17.33
2018-07-22T08:18:10.647Z,17.03
2018-07-22T08:20:39.631Z,20.03
2018-07-22T08:23:08.729Z,17.13
2018-07-22T08:25:37.763Z,17.10
2018-07-22T08:28:06.757Z,17.87
2018-07-22T08:30:35.771Z,17.60
2018-07-22T08:33:04.823Z,17.30
2018-07-22T08:35:33.882Z,17.73
2018-07-22T08:38:02.882Z,17.70
2018-07-22T08:40:32.018Z,17.77
2018-07-22T08:43:01.019Z,16.40
2018-07-22T08:45:30.887Z,16.57
2018-07-22T08:47:59.864Z,16.13
2018-07-22T08:50:28.888Z,17.43
2018-07-22T08:52:57.870Z,16.77
2018-07-22T08:55:26.858Z,16.87
2018-07-22T09:00:35.198Z,16.17
2018-07-22T09:03:04.168Z,16.53
2018-07-22T09:05:33.264Z,16.07
2018-07-22T09:08:02.504Z,16.23
2018-07-22T09:10:31.582Z,15.93
2018-07-22T09:13:00.734Z,14.63
2018-07-22T09:15:30.391Z,15.97
2018-07-22T09:17:59.368Z,14.03
2018-07-22T09:20:28.445Z,15.37
2018-07-22T09:22:57.457Z,13.90
2018-07-22T09:25:26.450Z,14.67
2018-07-22T09:27:55.494Z,13.60
2018-07-22T09:30:24.675Z,13.47
2018-07-22T09:32:53.643Z,13.17
2018-07-22T09:35:24.117Z,14.67
2018-07-22T09:37:55.551Z,13.13
2018-07-22T09:40:24.691Z,12.53
2018-07-22T09:42:53.696Z,12.83
2018-07-22T09:45:22.726Z,13.90
2018-07-22T09:47:52.117Z,12.57
2018-07-22T09:50:21.140Z,14.07
2018-07-22T09:52:50.247Z,14.63
2018-07-22T09:55:19.286Z,14.57
2018-07-22T09:57:48.359Z,13.97
2018-07-22T10:01:19.759Z,12.80
2018-07-22T10:03:48.827Z,15.50
2018-07-22T10:06:17.848Z,15.20
2018-07-22T10:08:46.844Z,13.40
2018-07-22T10:11:15.885Z,15.07
2018-07-22T10:13:44.801Z,12.87
2018-07-22T10:16:13.803Z,13.53
2018-07-22T10:18:42.774Z,13.97
2018-07-22T10:21:11.857Z,12.30
2018-07-22T10:23:40.851Z,12.57
2018-07-22T10:26:09.946Z,11.53
2018-07-22T10:28:38.996Z,14.33
2018-07-22T10:31:07.985Z,12.63
2018-07-22T10:33:36.959Z,12.00
2018-07-22T10:36:06.178Z,12.30
2018-07-22T10:38:35.227Z,13.23
2018-07-22T10:41:04.367Z,15.40
2018-07-22T10:43:33.530Z,13.60
2018-07-22T10:46:02.606Z,14.33
2018-07-22T10:48:31.618Z,12.83
2018-07-22T10:51:00.672Z,11.67
2018-07-22T10:53:29.806Z,13.50
2018-07-22T10:55:58.799Z,14.00
2018-07-22T10:58:27.782Z,13.70
2018-07-22T11:00:56.853Z,12.60
2018-07-22T11:03:25.928Z,12.37
2018-07-22T11:05:55.033Z,14.30
2018-07-22T11:08:23.974Z,13.17
2018-07-22T11:10:52.994Z,12.63
2018-07-22T11:13:22.020Z,12.07
2018-07-22T11:15:51.098Z,12.77
2018-07-22T11:18:20.080Z,12.00
2018-07-22T11:20:49.046Z,12.33
2018-07-22T11:23:18.143Z,11.53
2018-07-22T11:25:47.138Z,10.60
2018-07-22T11:28:16.116Z,11.77
2018-07-22T11:30:45.095Z,11.17
2018-07-22T11:33:14.944Z,10.53
2018-07-22T11:35:43.947Z,9.87
2018-07-22T11:38:18.233Z,10.43
2018-07-22T11:40:48.167Z,9.77
2018-07-22T11:43:17.138Z,9.43
2018-07-22T11:45:52.779Z,9.30
2018-07-22T11:48:21.806Z,9.50
2018-07-22T11:50:53.522Z,9.97
2018-07-22T11:53:22.617Z,9.83
2018-07-22T11:55:52.176Z,9.20
2018-07-22T11:58:21.531Z,9.67
2018-07-22T12:00:50.576Z,8.97
2018-07-22T12:03:20.337Z,8.80
2018-07-22T12:05:49.682Z,9.93
2018-07-22T12:08:19.009Z,8.73
2018-07-22T12:10:48.166Z,9.70
2018-07-22T12:13:17.153Z,9.57
2018-07-22T12:15:46.146Z,9.40
2018-07-22T12:18:15.191Z,10.40
2018-07-22T12:20:44.254Z,10.30
2018-07-22T12:23:13.230Z,10.73
2018-07-22T12:25:42.342Z,9.77
2018-07-22T12:28:11.414Z,9.50
2018-07-22T12:30:40.433Z,9.40
2018-07-22T12:33:09.523Z,9.47
2018-07-22T12:35:38.519Z,9.17
2018-07-22T12:38:07.593Z,9.03
2018-07-22T12:40:36.626Z,10.27
2018-07-22T12:43:05.615Z,9.53
2018-07-22T12:45:34.554Z,8.73
2018-07-22T12:48:03.563Z,9.43
2018-07-22T12:50:32.595Z,9.23
2018-07-22T12:53:01.565Z,9.27
2018-07-22T12:55:30.570Z,10.77
2018-07-22T12:57:59.582Z,9.80
2018-07-22T13:00:28.618Z,9.40
2018-07-22T13:02:57.713Z,8.97
2018-07-22T13:05:26.760Z,8.67
2018-07-22T13:07:55.800Z,8.93
2018-07-22T13:10:24.776Z,8.60
2018-07-22T13:12:53.938Z,8.87
2018-07-22T13:15:22.946Z,8.23
2018-07-22T13:17:52.138Z,8.27
2018-07-22T13:20:21.087Z,9.13
2018-07-22T13:22:50.077Z,8.60
2018-07-22T13:25:19.094Z,7.67
2018-07-22T13:27:48.182Z,8.07
2018-07-22T13:30:17.214Z,8.67
2018-07-22T13:32:46.238Z,8.10
2018-07-22T13:35:15.246Z,8.27
2018-07-22T13:37:44.482Z,7.97
2018-07-22T13:40:13.482Z,9.40
2018-07-22T13:42:42.450Z,8.53
2018-07-22T13:45:11.508Z,8.63
2018-07-22T13:47:40.415Z,8.70
2018-07-22T13:50:09.394Z,8.40
2018-07-22T13:52:38.371Z,8.63
2018-07-22T13:55:07.346Z,8.33
2018-07-22T13:57:36.374Z,8.37
2018-07-22T14:00:05.490Z,8.53
2018-07-22T14:02:34.458Z,8.57
2018-07-22T14:05:03.698Z,9.00
2018-07-22T14:07:32.694Z,8.63
2018-07-22T14:10:01.746Z,9.23
2018-07-22T14:12:30.754Z,8.60
2018-07-22T14:14:59.795Z,9.00
2018-07-22T14:17:28.981Z,8.30
2018-07-22T14:19:58.565Z,8.67
2018-07-22T14:22:27.530Z,8.50
2018-07-22T14:24:56.641Z,9.10
2018-07-22T14:27:25.636Z,8.10
2018-07-22T14:29:54.683Z,8.57
2018-07-22T14:32:23.768Z,8.03
2018-07-22T14:34:52.790Z,8.00
2018-07-22T14:37:21.778Z,8.10
2018-07-22T14:39:50.833Z,7.97
2018-07-22T14:42:19.846Z,9.03
2018-07-22T14:44:49.074Z,8.87
2018-07-22T14:47:18.109Z,9.23
2018-07-22T14:49:47.074Z,8.67
2018-07-22T14:52:16.178Z,8.50
2018-07-22T14:54:45.178Z,9.33
2018-07-22T14:57:14.158Z,8.53
2018-07-22T14:59:43.162Z,7.90
2018-07-22T15:02:12.179Z,8.50
2018-07-22T15:04:41.221Z,9.00
2018-07-22T15:07:10.205Z,8.77
2018-07-22T15:09:39.199Z,8.93
2018-07-22T15:12:08.410Z,8.60
2018-07-22T15:14:37.390Z,8.30
2018-07-22T15:17:06.366Z,8.97
2018-07-22T15:19:35.402Z,9.20
2018-07-22T15:22:04.396Z,9.43
2018-07-22T15:24:33.467Z,9.77
2018-07-22T15:27:02.470Z,9.17
2018-07-22T15:29:31.511Z,8.43
2018-07-22T15:32:00.682Z,8.50
2018-07-22T15:34:29.655Z,8.40
2018-07-22T15:36:58.743Z,9.13
2018-07-22T15:39:27.743Z,8.30
2018-07-22T15:41:56.758Z,8.80
2018-07-22T15:44:25.855Z,9.33
2018-07-22T15:46:54.854Z,8.63
2018-07-22T15:49:23.983Z,8.83
2018-07-22T15:51:52.984Z,9.00
2018-07-22T15:54:22.054Z,8.60
2018-07-22T15:56:51.034Z,8.70
2018-07-22T15:59:20.344Z,7.90
2018-07-22T16:01:49.333Z,8.10
2018-07-22T16:04:18.401Z,7.80
2018-07-22T16:06:47.430Z,7.67
2018-07-22T16:09:16.474Z,8.10
2018-07-22T16:11:45.489Z,8.20
2018-07-22T16:14:14.676Z,8.17
2018-07-22T16:16:43.676Z,8.23
2018-07-22T16:19:12.656Z,8.93
2018-07-22T16:21:41.762Z,8.90
2018-07-22T16:24:11.038Z,8.73
2018-07-22T16:26:40.040Z,8.70
2018-07-22T16:29:09.078Z,8.87
2018-07-22T16:31:38.121Z,7.83
2018-07-22T16:34:07.189Z,8.87
2018-07-22T16:36:36.166Z,8.77
2018-07-22T16:39:07.734Z,9.10
2018-07-22T16:41:36.751Z,9.33
2018-07-22T16:44:06.407Z,9.13
2018-07-22T16:46:35.571Z,8.70
2018-07-22T16:49:04.590Z,8.80
2018-07-22T16:51:33.727Z,8.97
2018-07-22T16:54:02.734Z,9.43
2018-07-22T16:56:32.114Z,9.60
2018-07-22T16:59:01.526Z,8.97
2018-07-22T17:01:30.532Z,8.90
2018-07-22T17:03:59.706Z,9.30
2018-07-22T17:06:28.709Z,9.10
2018-07-22T17:08:57.750Z,9.00
2018-07-22T17:11:26.722Z,8.90
2018-07-22T17:13:55.750Z,8.73
2018-07-22T17:16:24.799Z,8.80
2018-07-22T17:18:54.050Z,9.57
2018-07-22T17:21:23.918Z,9.30
2018-07-22T17:23:52.963Z,9.33
2018-07-22T17:26:22.087Z,9.03
2018-07-22T17:28:51.670Z,8.83
2018-07-22T17:31:23.330Z,9.00
2018-07-22T17:33:52.802Z,10.30
2018-07-22T17:36:21.910Z,9.60
2018-07-22T17:38:50.968Z,8.90
2018-07-22T17:41:20.222Z,9.70
2018-07-22T17:43:48.889Z,10.73
2018-07-22T17:46:24.110Z,9.57
2018-07-22T17:48:53.235Z,10.77
2018-07-22T17:51:22.302Z,9.67
2018-07-22T17:53:51.314Z,10.60
2018-07-22T17:56:20.322Z,10.13
2018-07-22T17:58:49.326Z,10.77
2018-07-22T18:01:18.435Z,10.30
2018-07-22T18:03:47.450Z,12.43
2018-07-22T18:06:16.433Z,11.50
2018-07-22T18:08:45.646Z,11.20
2018-07-22T18:11:14.774Z,10.07
2018-07-22T18:13:43.775Z,10.37
2018-07-22T18:16:12.813Z,10.87
2018-07-22T18:18:41.854Z,10.70
2018-07-22T18:21:10.859Z,9.97
2018-07-22T18:23:39.854Z,10.27
2018-07-22T18:26:09.310Z,10.97
2018-07-22T18:28:38.428Z,10.90
2018-07-22T18:31:07.439Z,11.17
2018-07-22T18:33:36.460Z,11.37
2018-07-22T18:36:06.073Z,11.30
2018-07-22T18:38:35.114Z,10.67
2018-07-22T18:41:04.158Z,10.80
2018-07-22T18:43:33.186Z,10.93
2018-07-22T18:46:02.333Z,11.53
2018-07-22T18:48:31.660Z,11.07
2018-07-22T18:51:00.661Z,11.37
2018-07-22T18:53:30.690Z,11.17
2018-07-22T18:56:00.242Z,11.33
2018-07-22T18:58:29.658Z,11.80
2018-07-22T19:00:58.959Z,11.37
2018-07-22T19:03:28.030Z,12.30
2018-07-22T19:05:57.930Z,11.40
2018-07-22T19:08:26.951Z,12.23
2018-07-22T19:10:56.012Z,11.90
2018-07-22T19:13:25.022Z,11.50
2018-07-22T19:15:54.026Z,11.60
2018-07-22T19:18:23.144Z,11.90
2018-07-22T19:20:52.313Z,12.10
2018-07-22T19:23:21.271Z,12.33
2018-07-22T19:25:51.558Z,12.20
2018-07-22T19:28:20.986Z,13.10
2018-07-22T19:30:49.991Z,12.57
2018-07-22T19:33:19.535Z,11.90
2018-07-22T19:35:48.734Z,12.90
2018-07-22T19:38:17.768Z,12.00
2018-07-22T19:40:46.846Z,12.63
2018-07-22T19:43:16.121Z,12.37
2018-07-22T19:45:45.435Z,11.97
2018-07-22T19:48:14.526Z,12.53
2018-07-22T19:50:43.613Z,11.63
2018-07-22T19:53:12.854Z,11.90
2018-07-22T19:55:42.003Z,11.73
2018-07-22T19:58:11.160Z,12.90
2018-07-22T20:00:40.284Z,11.67
2018-07-22T20:03:09.257Z,12.27
2018-07-22T20:05:38.338Z,12.13
2018-07-22T20:08:07.350Z,12.90
2018-07-22T20:10:36.494Z,12.50
2018-07-22T20:13:05.626Z,13.23
2018-07-22T20:15:34.609Z,13.90
2018-07-22T20:18:03.637Z,14.33
2018-07-22T20:20:32.622Z,14.30
2018-07-22T20:23:02.630Z,15.37
2018-07-22T20:25:31.850Z,16.27
2018-07-22T20:28:00.905Z,15.37
2018-07-22T20:30:29.914Z,16.50
2018-07-22T20:32:58.996Z,16.60
2018-07-22T20:35:28.521Z,16.20
2018-07-22T20:37:57.604Z,15.53
2018-07-22T20:40:26.667Z,15.47
2018-07-22T20:42:56.647Z,14.97
2018-07-22T20:45:25.758Z,15.67
2018-07-22T20:47:54.778Z,14.50
2018-07-22T20:50:23.802Z,16.00
2018-07-22T20:52:52.823Z,14.33
2018-07-22T20:55:21.958Z,15.50
2018-07-22T20:57:51.451Z,15.67
2018-07-22T21:00:20.586Z,15.13
2018-07-22T21:02:49.827Z,14.20
2018-07-22T21:05:18.873Z,15.87
2018-07-22T21:07:47.954Z,15.20
2018-07-22T21:10:18.280Z,15.17
2018-07-22T21:13:21.701Z,14.67
2018-07-22T21:15:51.311Z,14.07
2018-07-22T21:18:20.344Z,14.30
2018-07-22T21:20:49.343Z,14.60
2018-07-22T21:23:18.518Z,15.37
2018-07-22T21:25:47.539Z,14.80
2018-07-22T21:28:17.414Z,15.83
2018-07-22T21:30:46.498Z,15.50
2018-07-22T21:33:15.530Z,15.27
2018-07-22T21:35:44.590Z,14.50
2018-07-22T21:38:13.574Z,14.60
2018-07-22T21:40:42.614Z,15.37
2018-07-22T21:43:11.740Z,15.07
2018-07-22T21:45:40.758Z,15.50
2018-07-22T21:48:09.843Z,14.87
2018-07-22T21:50:38.918Z,15.27
2018-07-22T21:53:07.930Z,14.93
2018-07-22T21:55:37.055Z,14.87
2018-07-22T21:58:06.600Z,15.30
2018-07-22T22:00:40.963Z,14.43
2018-07-22T22:03:09.998Z,15.57
2018-07-22T22:05:39.102Z,14.67
2018-07-22T22:08:08.191Z,14.87
2018-07-22T22:10:37.288Z,15.67
2018-07-22T22:13:06.349Z,14.10
2018-07-22T22:15:35.439Z,14.50
2018-07-22T22:18:05.237Z,14.90
2018-07-22T22:20:34.431Z,14.00
2018-07-22T22:23:03.483Z,14.53
2018-07-22T22:25:32.571Z,15.10
2018-07-22T22:28:01.637Z,14.67
2018-07-22T22:30:30.606Z,14.43
2018-07-22T22:32:59.599Z,14.57
2018-07-22T22:35:28.602Z,14.90
2018-07-22T22:37:57.618Z,15.03
2018-07-22T22:40:27.035Z,15.47
2018-07-22T22:42:56.046Z,16.20
2018-07-22T22:45:25.116Z,16.17
2018-07-22T22:47:54.111Z,17.07
2018-07-22T22:50:23.167Z,16.23
2018-07-22T22:52:52.187Z,16.67
2018-07-22T22:55:21.534Z,14.60
2018-07-22T22:58:01.800Z,15.60
2018-07-22T23:00:30.859Z,16.07
2018-07-22T23:02:59.962Z,16.77
2018-07-22T23:05:28.947Z,16.30
2018-07-22T23:07:57.918Z,15.80
2018-07-22T23:10:26.898Z,16.40
2018-07-22T23:12:56.007Z,16.30
2018-07-22T23:15:25.059Z,15.17
2018-07-22T23:17:54.066Z,16.40
2018-07-22T23:20:23.077Z,16.30
2018-07-22T23:22:52.442Z,16.27
2018-07-22T23:25:21.413Z,17.90
2018-07-22T23:27:50.466Z,17.23
2018-07-22T23:30:19.459Z,17.47
2018-07-22T23:32:48.482Z,17.47
2018-07-22T23:35:17.482Z,18.10
2018-07-22T23:37:46.578Z,18.40
2018-07-22T23:40:15.694Z,17.73
2018-07-22T23:42:44.728Z,16.07
2018-07-22T23:45:13.727Z,17.33
2018-07-22T23:47:42.749Z,17.07
2018-07-22T23:50:11.743Z,17.13
2018-07-22T23:52:40.738Z,17.80
2018-07-22T23:55:09.742Z,16.93
2018-07-22T23:57:38.718Z,17.13
